Time;durP1;ratioP1;P1;durP2;ratioP2;P2;SDS_P1;SDS_P2;PMS_P1;PMS_P2;Temp;Humidity;BMP_temperature;BMP_pressure;BME280_temperature;BME280_humidity;BME280_pressure;Samples;Min_cycle;Max_cycle;Signal;HPM_P1;HPM_P2
2021/12/25 00:03:26;;;;;;;6.15;1.42;;;;;;;;;;5095589;28;20739;-75
2021/12/25 00:05:52;;;;;;;3.55;1.52;;;;;;;;;;5089589;28;20414;-74
2021/12/25 00:08:26;;;;;;;7.32;1.48;;;;;;;;;;5104853;28;20412;-74
2021/12/25 00:10:52;;;;;;;7.78;1.80;;;;;;;;;;5106859;28;20907;-73
2021/12/25 00:13:19;;;;;;;4.63;1.48;;;;;;;;;;5100626;28;20424;-74
2021/12/25 00:15:45;;;;;;;5.85;1.63;;;;;;;;;;5106545;28;20440;-75
2021/12/25 00:18:11;;;;;;;5.68;1.83;;;;;;;;;;5071014;28;20419;-74
2021/12/25 00:20:37;;;;;;;6.47;1.55;;;;;;;;;;5093425;28;20425;-74
2021/12/25 00:23:07;;;;;;;8.02;1.60;;;;;;;;;;5099725;28;20480;-73
2021/12/25 00:25:40;;;;;;;5.88;1.70;;;;;;;;;;5102433;28;20427;-73
2021/12/25 00:29:30;;;;;;;4.53;1.52;;;;;;;;;;5096206;28;20418;-73
2021/12/25 00:36:11;;;;;;;4.68;1.40;;;;;;;;;;5077087;28;20444;-73
2021/12/25 00:38:37;;;;;;;5.25;1.40;;;;;;;;;;5084818;28;20414;-73
2021/12/25 00:41:04;;;;;;;5.78;1.70;;;;;;;;;;5080818;28;20422;-73
2021/12/25 00:43:30;;;;;;;5.63;1.42;;;;;;;;;;5079469;28;20408;-72
2021/12/25 00:45:56;;;;;;;5.93;1.50;;;;;;;;;;5095061;28;20443;-73
2021/12/25 00:48:22;;;;;;;5.78;1.60;;;;;;;;;;5100115;28;20432;-73
2021/12/25 00:50:49;;;;;;;7.15;1.90;;;;;;;;;;5093309;28;20905;-73
2021/12/25 00:53:15;;;;;;;5.72;1.50;;;;;;;;;;5086037;28;20417;-73
2021/12/25 00:55:41;;;;;;;7.72;1.70;;;;;;;;;;5105789;28;20456;-73
2021/12/25 00:58:07;;;;;;;4.63;1.42;;;;;;;;;;5105403;28;20416;-73
2021/12/25 01:00:33;;;;;;;5.65;1.52;;;;;;;;;;5086640;28;20427;-73
2021/12/25 01:02:59;;;;;;;5.70;1.50;;;;;;;;;;5092364;28;20416;-72
2021/12/25 01:05:25;;;;;;;7.00;1.65;;;;;;;;;;5106069;28;20426;-73
2021/12/25 01:07:51;;;;;;;5.43;1.45;;;;;;;;;;5095767;28;20420;-73
2021/12/25 01:10:19;;;;;;;5.30;1.40;;;;;;;;;;5103279;28;20760;-72
2021/12/25 01:15:34;;;;;;;5.20;1.30;;;;;;;;;;5102144;28;20421;-72
2021/12/25 01:21:42;;;;;;;4.47;1.30;;;;;;;;;;5100565;28;20420;-73
2021/12/25 01:26:33;;;;;;;5.28;1.25;;;;;;;;;;5089681;28;20813;-73
2021/12/25 01:39:20;;;;;;;4.38;1.17;;;;;;;;;;5090735;28;20425;-74
2021/12/25 01:47:48;;;;;;;3.38;1.35;;;;;;;;;;5006118;28;20535;-73
2021/12/25 01:50:15;;;;;;;5.53;1.50;;;;;;;;;;5073797;28;20454;-73
2021/12/25 01:52:41;;;;;;;5.18;1.33;;;;;;;;;;5091449;28;20972;-71
2021/12/25 01:55:11;;;;;;;5.93;1.20;;;;;;;;;;5104311;28;20421;-73
2021/12/25 01:57:37;;;;;;;4.30;1.07;;;;;;;;;;5100080;28;20747;-73
2021/12/25 02:00:05;;;;;;;4.00;1.25;;;;;;;;;;5107641;28;20409;-73
2021/12/25 02:02:31;;;;;;;4.10;1.10;;;;;;;;;;5106535;28;20420;-73
2021/12/25 02:04:58;;;;;;;3.90;1.20;;;;;;;;;;5095814;28;20917;-73
2021/12/25 02:07:24;;;;;;;4.75;1.02;;;;;;;;;;5087106;28;20417;-73
2021/12/25 02:09:50;;;;;;;6.57;1.10;;;;;;;;;;5097837;28;20443;-73
2021/12/25 02:12:16;;;;;;;4.68;1.15;;;;;;;;;;5102517;28;20443;-72
2021/12/25 02:14:45;;;;;;;2.83;1.00;;;;;;;;;;5082444;28;20436;-73
2021/12/25 02:17:25;;;;;;;3.95;1.25;;;;;;;;;;5085029;28;20452;-72
2021/12/25 02:20:08;;;;;;;2.47;1.00;;;;;;;;;;5086061;28;20469;-73
2021/12/25 02:22:34;;;;;;;4.53;1.05;;;;;;;;;;5096054;28;20540;-73
2021/12/25 02:25:00;;;;;;;2.40;0.90;;;;;;;;;;5099624;28;20566;-73
2021/12/25 02:27:26;;;;;;;5.50;1.27;;;;;;;;;;5086554;28;20452;-72
2021/12/25 02:29:52;;;;;;;5.37;1.40;;;;;;;;;;5081979;28;21020;-73
2021/12/25 02:32:18;;;;;;;3.92;1.27;;;;;;;;;;5097056;28;20986;-73
2021/12/25 02:34:44;;;;;;;3.00;1.20;;;;;;;;;;5094024;28;20795;-73
2021/12/25 02:37:12;;;;;;;3.40;1.20;;;;;;;;;;5100171;28;20444;-73
2021/12/25 02:39:38;;;;;;;5.38;1.30;;;;;;;;;;5094381;28;20428;-73
2021/12/25 02:42:04;;;;;;;4.85;1.17;;;;;;;;;;5099057;28;20519;-73
2021/12/25 02:44:31;;;;;;;3.77;1.40;;;;;;;;;;5071013;28;20423;-73
2021/12/25 02:47:05;;;;;;;4.13;1.27;;;;;;;;;;5085755;28;20416;-73
2021/12/25 02:49:31;;;;;;;4.22;1.30;;;;;;;;;;5084920;28;20423;-74
2021/12/25 02:51:57;;;;;;;2.92;1.10;;;;;;;;;;5081800;28;20419;-73
2021/12/25 02:54:23;;;;;;;2.92;1.00;;;;;;;;;;5082658;28;20920;-72
2021/12/25 02:56:49;;;;;;;3.78;1.20;;;;;;;;;;5095581;28;20429;-74
2021/12/25 02:59:15;;;;;;;3.28;1.00;;;;;;;;;;5091324;28;20423;-74
2021/12/25 03:01:41;;;;;;;2.85;1.30;;;;;;;;;;5081726;28;20422;-73
2021/12/25 03:04:07;;;;;;;3.08;1.35;;;;;;;;;;5098351;28;20423;-73
2021/12/25 03:06:38;;;;;;;4.93;1.23;;;;;;;;;;5092584;28;20502;-73
2021/12/25 03:09:07;;;;;;;4.80;1.10;;;;;;;;;;5102529;28;20416;-73
2021/12/25 03:11:34;;;;;;;4.18;1.05;;;;;;;;;;5086703;28;20791;-73
2021/12/25 03:14:12;;;;;;;3.70;1.27;;;;;;;;;;5093718;28;20424;-73
2021/12/25 03:16:39;;;;;;;3.35;1.20;;;;;;;;;;5092487;28;20475;-74
2021/12/25 03:19:08;;;;;;;3.85;1.13;;;;;;;;;;5077657;28;20460;-74
2021/12/25 03:21:35;;;;;;;4.05;1.30;;;;;;;;;;5077599;28;20426;-73
2021/12/25 03:24:01;;;;;;;2.80;1.10;;;;;;;;;;5107556;28;20996;-73
2021/12/25 03:26:27;;;;;;;3.22;1.10;;;;;;;;;;5110223;28;20428;-72
2021/12/25 03:28:53;;;;;;;3.88;1.10;;;;;;;;;;5091540;28;20550;-74
2021/12/25 03:31:21;;;;;;;2.63;0.98;;;;;;;;;;5095010;28;20512;-73
2021/12/25 03:33:49;;;;;;;3.75;1.20;;;;;;;;;;5106285;28;20468;-73
2021/12/25 03:36:16;;;;;;;4.20;0.98;;;;;;;;;;5096547;28;20415;-74
2021/12/25 03:38:42;;;;;;;4.17;1.00;;;;;;;;;;5084124;28;20517;-73
2021/12/25 03:41:08;;;;;;;3.03;1.00;;;;;;;;;;5100476;28;20424;-74
2021/12/25 03:43:37;;;;;;;4.50;1.23;;;;;;;;;;5076554;28;20422;-74
2021/12/25 03:46:03;;;;;;;2.80;1.10;;;;;;;;;;5094898;28;20412;-73
2021/12/25 03:49:27;;;;;;;3.05;0.90;;;;;;;;;;5082640;28;20407;-74
2021/12/25 03:59:12;;;;;;;2.28;1.10;;;;;;;;;;5110016;28;20546;-74
2021/12/25 04:06:36;;;;;;;3.45;1.20;;;;;;;;;;5098553;28;20451;-74
2021/12/25 04:09:04;;;;;;;2.65;1.00;;;;;;;;;;5088164;28;20419;-74
2021/12/25 04:11:33;;;;;;;3.72;1.30;;;;;;;;;;5101023;28;20536;-74
2021/12/25 04:14:00;;;;;;;3.40;1.08;;;;;;;;;;5105443;28;20515;-72
2021/12/25 04:16:26;;;;;;;3.70;1.07;;;;;;;;;;5095013;28;20420;-74
2021/12/25 04:18:52;;;;;;;3.05;1.00;;;;;;;;;;5108324;28;20497;-74
2021/12/25 04:21:19;;;;;;;4.53;1.00;;;;;;;;;;5104621;28;21429;-73
2021/12/25 04:23:45;;;;;;;2.95;1.00;;;;;;;;;;5111031;28;20404;-74
2021/12/25 04:26:13;;;;;;;4.53;1.27;;;;;;;;;;5105285;28;20415;-74
2021/12/25 04:28:48;;;;;;;2.38;0.98;;;;;;;;;;5103824;28;20426;-74
2021/12/25 05:04:12;;;;;;;2.78;1.10;;;;;;;;;;5098449;28;20475;-77
2021/12/25 05:06:38;;;;;;;3.35;1.05;;;;;;;;;;5105336;28;20507;-75
2021/12/25 05:09:05;;;;;;;4.25;1.15;;;;;;;;;;5107049;28;20420;-77
2021/12/25 05:11:31;;;;;;;4.75;1.15;;;;;;;;;;5109642;28;20420;-77
2021/12/25 05:13:57;;;;;;;5.87;1.37;;;;;;;;;;5084314;28;20433;-78
2021/12/25 05:16:23;;;;;;;2.97;1.00;;;;;;;;;;5073721;28;20624;-77
2021/12/25 05:18:50;;;;;;;3.70;1.13;;;;;;;;;;5104218;28;20423;-78
2021/12/25 05:21:18;;;;;;;2.40;1.13;;;;;;;;;;5105672;28;20547;-78
2021/12/25 05:23:44;;;;;;;2.95;1.10;;;;;;;;;;5075454;28;20595;-77
2021/12/25 05:26:10;;;;;;;4.15;1.20;;;;;;;;;;5100587;28;20455;-77
2021/12/25 05:28:42;;;;;;;3.45;1.20;;;;;;;;;;5102698;28;20416;-77
2021/12/25 05:31:09;;;;;;;2.60;1.00;;;;;;;;;;5106220;28;20482;-76
2021/12/25 05:33:36;;;;;;;2.13;1.10;;;;;;;;;;5094994;28;20477;-76
2021/12/25 05:36:03;;;;;;;1.83;0.97;;;;;;;;;;5101191;28;20739;-74
2021/12/25 05:38:29;;;;;;;4.35;1.50;;;;;;;;;;5104763;28;20428;-77
2021/12/25 05:40:55;;;;;;;3.72;1.33;;;;;;;;;;5090484;28;20508;-77
2021/12/25 05:43:22;;;;;;;3.13;1.20;;;;;;;;;;5086897;28;20447;-77
2021/12/25 05:45:48;;;;;;;7.15;1.30;;;;;;;;;;5105207;28;20700;-77
2021/12/25 05:48:14;;;;;;;5.25;1.20;;;;;;;;;;5096360;28;20420;-77
2021/12/25 05:50:40;;;;;;;3.08;1.38;;;;;;;;;;5109670;28;20499;-77
2021/12/25 05:53:06;;;;;;;3.33;1.27;;;;;;;;;;5075845;28;20422;-78
2021/12/25 05:55:33;;;;;;;2.95;1.25;;;;;;;;;;5105803;28;20420;-76
2021/12/25 05:58:00;;;;;;;5.97;1.30;;;;;;;;;;5074646;28;20951;-77
2021/12/25 06:00:26;;;;;;;3.28;1.30;;;;;;;;;;5104111;28;20438;-76
2021/12/25 06:02:52;;;;;;;2.53;1.13;;;;;;;;;;5077226;28;20498;-77
2021/12/25 06:05:19;;;;;;;4.55;1.30;;;;;;;;;;5071909;28;20510;-76
2021/12/25 06:07:45;;;;;;;4.78;1.40;;;;;;;;;;5099208;28;20420;-77
2021/12/25 06:10:12;;;;;;;3.63;1.10;;;;;;;;;;5066336;28;20500;-77
2021/12/25 06:12:39;;;;;;;3.22;1.30;;;;;;;;;;5104703;28;21002;-77
2021/12/25 06:15:13;;;;;;;3.92;1.05;;;;;;;;;;5101012;28;20946;-77
2021/12/25 06:17:39;;;;;;;3.15;1.02;;;;;;;;;;5095026;28;20542;-77
2021/12/25 06:20:06;;;;;;;4.60;1.30;;;;;;;;;;5094840;28;20423;-77
2021/12/25 06:22:32;;;;;;;3.53;1.23;;;;;;;;;;5092437;28;20443;-77
2021/12/25 06:24:58;;;;;;;3.53;0.90;;;;;;;;;;5101656;28;20749;-76
2021/12/25 06:27:25;;;;;;;2.95;1.10;;;;;;;;;;5087466;28;20427;-77
2021/12/25 06:29:51;;;;;;;2.38;0.93;;;;;;;;;;5093578;28;20523;-77
2021/12/25 06:32:17;;;;;;;2.72;1.10;;;;;;;;;;5097855;28;20453;-77
2021/12/25 06:34:44;;;;;;;2.40;1.02;;;;;;;;;;5098951;28;20416;-77
2021/12/25 06:37:10;;;;;;;2.45;0.93;;;;;;;;;;5106083;28;20768;-77
2021/12/25 06:39:38;;;;;;;4.35;1.00;;;;;;;;;;5082218;28;20424;-77
2021/12/25 06:42:04;;;;;;;2.78;0.90;;;;;;;;;;5105635;28;20416;-77
2021/12/25 06:44:30;;;;;;;3.35;1.00;;;;;;;;;;5083629;28;20498;-77
2021/12/25 06:46:57;;;;;;;3.28;1.30;;;;;;;;;;5101403;28;20419;-77
2021/12/25 06:49:24;;;;;;;3.30;1.10;;;;;;;;;;5081787;28;20408;-76
2021/12/25 06:51:50;;;;;;;2.80;0.93;;;;;;;;;;5082599;28;20427;-77
2021/12/25 06:54:17;;;;;;;2.45;1.10;;;;;;;;;;5084920;28;20892;-76
2021/12/25 06:56:47;;;;;;;3.38;1.13;;;;;;;;;;5078265;28;20805;-75
2021/12/25 06:59:13;;;;;;;2.38;1.10;;;;;;;;;;5082399;28;20460;-77
2021/12/25 07:01:40;;;;;;;2.53;1.10;;;;;;;;;;5069164;28;20511;-76
2021/12/25 07:04:09;;;;;;;3.00;0.93;;;;;;;;;;5099632;28;20416;-76
2021/12/25 07:06:36;;;;;;;4.22;1.30;;;;;;;;;;5081224;28;20449;-76
2021/12/25 07:09:03;;;;;;;2.97;1.10;;;;;;;;;;5097865;28;20434;-76
2021/12/25 07:11:29;;;;;;;3.72;1.52;;;;;;;;;;5105931;28;20839;-76
2021/12/25 07:13:57;;;;;;;2.30;0.93;;;;;;;;;;5102083;28;20426;-75
2021/12/25 07:16:23;;;;;;;3.10;1.10;;;;;;;;;;5078853;28;20559;-75
2021/12/25 07:18:49;;;;;;;9.20;1.20;;;;;;;;;;5084302;28;20412;-75
2021/12/25 07:21:15;;;;;;;4.55;1.40;;;;;;;;;;5095128;28;21047;-75
2021/12/25 07:23:41;;;;;;;4.35;2.25;;;;;;;;;;5085714;28;20408;-73
2021/12/25 07:26:07;;;;;;;4.70;1.40;;;;;;;;;;5100555;28;20433;-76
2021/12/25 07:28:34;;;;;;;5.35;2.25;;;;;;;;;;5102040;28;20443;-75
2021/12/25 07:31:00;;;;;;;6.40;2.67;;;;;;;;;;5094233;28;20463;-76
2021/12/25 07:39:31;;;;;;;4.50;1.48;;;;;;;;;;5388011;23;20401;31
2021/12/25 07:41:57;;;;;;;4.68;1.80;;;;;;;;;;4979086;28;20458;-74
2021/12/25 07:47:40;;;;;;;2.78;1.08;;;;;;;;;;4967448;23;20439;-69
2021/12/25 07:50:06;;;;;;;3.92;1.20;;;;;;;;;;4913271;29;20439;-69
2021/12/25 07:52:32;;;;;;;4.60;1.23;;;;;;;;;;4887252;29;20431;-71
2021/12/25 07:54:58;;;;;;;3.03;1.13;;;;;;;;;;4915567;29;20517;-72
2021/12/25 07:57:24;;;;;;;3.45;1.20;;;;;;;;;;4913883;29;20440;-72
2021/12/25 07:59:50;;;;;;;2.28;1.20;;;;;;;;;;4910416;29;20435;-72
2021/12/25 08:02:16;;;;;;;5.15;1.48;;;;;;;;;;4904845;29;20490;-71
2021/12/25 08:04:43;;;;;;;3.13;1.23;;;;;;;;;;4921116;29;20854;-73
2021/12/25 08:07:09;;;;;;;5.85;1.40;;;;;;;;;;4899576;29;20462;-73
2021/12/25 08:09:35;;;;;;;6.22;1.20;;;;;;;;;;4918304;29;20443;-73
2021/12/25 08:12:03;;;;;;;3.03;1.10;;;;;;;;;;4892338;29;20503;-73
2021/12/25 08:14:29;;;;;;;4.40;1.30;;;;;;;;;;4917710;29;20435;-76
2021/12/25 08:16:56;;;;;;;3.77;1.20;;;;;;;;;;4899596;29;20526;-77
2021/12/25 08:19:23;;;;;;;3.92;1.30;;;;;;;;;;4898638;29;20825;-76
2021/12/25 08:21:49;;;;;;;3.55;1.15;;;;;;;;;;4912604;29;20465;-77
2021/12/25 08:24:15;;;;;;;4.90;1.30;;;;;;;;;;4911725;29;20498;-76
2021/12/25 08:26:42;;;;;;;5.90;1.45;;;;;;;;;;4911665;29;20437;-75
2021/12/25 08:29:09;;;;;;;3.92;1.50;;;;;;;;;;4895521;29;20429;-74
2021/12/25 08:31:35;;;;;;;3.67;1.40;;;;;;;;;;4920417;29;20435;-76
2021/12/25 08:34:01;;;;;;;4.20;1.50;;;;;;;;;;4918103;29;20432;-75
2021/12/25 08:36:27;;;;;;;8.23;1.70;;;;;;;;;;4916884;29;20934;-76
2021/12/25 08:38:54;;;;;;;4.30;1.50;;;;;;;;;;4895459;29;20431;-76
2021/12/25 08:41:21;;;;;;;4.07;1.60;;;;;;;;;;4931509;29;20484;-75
2021/12/25 08:43:49;;;;;;;4.53;1.80;;;;;;;;;;4914986;29;20879;-76
2021/12/25 08:46:35;;;;;;;5.82;1.65;;;;;;;;;;4890472;29;20432;-77
2021/12/25 08:49:01;;;;;;;4.75;1.63;;;;;;;;;;4911852;29;20555;-77
2021/12/25 08:51:27;;;;;;;8.70;1.88;;;;;;;;;;4887927;29;20456;-77
2021/12/25 08:53:53;;;;;;;4.88;1.50;;;;;;;;;;4899899;29;20951;-77
2021/12/25 08:56:19;;;;;;;4.22;1.35;;;;;;;;;;4888896;29;20483;-77
2021/12/25 08:58:45;;;;;;;3.30;1.40;;;;;;;;;;4882591;29;20437;-77
2021/12/25 09:01:12;;;;;;;3.53;1.50;;;;;;;;;;4900758;29;20575;-76
2021/12/25 09:03:38;;;;;;;5.93;2.33;;;;;;;;;;4892884;29;20771;-76
2021/12/25 09:06:04;;;;;;;11.60;6.68;;;;;;;;;;4882185;29;20439;-76
2021/12/25 09:08:31;;;;;;;9.63;4.33;;;;;;;;;;4899314;29;20477;-76
2021/12/25 09:10:57;;;;;;;8.48;3.83;;;;;;;;;;4879775;29;20571;-76
2021/12/25 09:13:23;;;;;;;9.98;4.13;;;;;;;;;;4903742;29;20442;-76
2021/12/25 09:15:50;;;;;;;6.70;2.80;;;;;;;;;;4881453;29;20454;-76
2021/12/25 09:18:16;;;;;;;6.07;2.72;;;;;;;;;;4868186;29;20701;-75
2021/12/25 09:20:42;;;;;;;8.68;5.13;;;;;;;;;;4889151;29;20433;-75
2021/12/25 09:23:08;;;;;;;5.68;2.60;;;;;;;;;;4914390;29;20435;-75
2021/12/25 09:25:35;;;;;;;6.93;2.83;;;;;;;;;;4900093;29;20442;-75
2021/12/25 09:28:01;;;;;;;4.68;2.08;;;;;;;;;;4899976;29;20548;-74
2021/12/25 09:30:27;;;;;;;4.65;1.50;;;;;;;;;;4896443;29;20950;-75
2021/12/25 09:32:53;;;;;;;3.67;1.40;;;;;;;;;;4884904;29;20493;-76
2021/12/25 09:35:20;;;;;;;3.47;1.38;;;;;;;;;;4886130;29;20857;-75
2021/12/25 09:37:46;;;;;;;3.33;1.15;;;;;;;;;;4900134;29;20433;-74
2021/12/25 09:40:12;;;;;;;3.47;1.40;;;;;;;;;;4895023;29;20780;-74
2021/12/25 09:42:40;;;;;;;3.40;1.40;;;;;;;;;;4909105;29;20506;-75
2021/12/25 09:45:07;;;;;;;3.22;1.10;;;;;;;;;;4910871;29;20509;-74
2021/12/25 09:47:33;;;;;;;5.82;1.50;;;;;;;;;;4892530;29;20991;-74
2021/12/25 09:49:59;;;;;;;4.55;1.20;;;;;;;;;;4858386;29;20494;-73
2021/12/25 09:52:26;;;;;;;7.50;1.48;;;;;;;;;;4879065;29;20847;-73
2021/12/25 09:54:52;;;;;;;4.22;1.40;;;;;;;;;;4896286;29;20445;-74
2021/12/25 09:57:18;;;;;;;3.33;1.35;;;;;;;;;;4899506;29;20423;-73
2021/12/25 09:59:44;;;;;;;3.88;1.65;;;;;;;;;;4891223;29;20427;-73
2021/12/25 10:02:13;;;;;;;4.57;1.48;;;;;;;;;;4898558;29;20840;-74
2021/12/25 10:04:42;;;;;;;4.38;1.40;;;;;;;;;;4884852;29;20555;-73
2021/12/25 10:07:29;;;;;;;4.75;1.60;;;;;;;;;;4911633;29;20476;-74
2021/12/25 10:10:01;;;;;;;4.75;1.55;;;;;;;;;;4888886;29;20448;-74
2021/12/25 10:12:36;;;;;;;4.97;1.30;;;;;;;;;;4896547;29;20510;-73
2021/12/25 10:15:04;;;;;;;4.90;1.80;;;;;;;;;;4917616;29;20600;-74
2021/12/25 10:17:31;;;;;;;5.10;1.60;;;;;;;;;;4909388;29;20494;-74
2021/12/25 10:20:02;;;;;;;4.15;1.50;;;;;;;;;;4869462;29;20446;-74
2021/12/25 10:22:28;;;;;;;3.55;1.40;;;;;;;;;;4900981;29;20493;-73
2021/12/25 10:25:05;;;;;;;5.82;1.30;;;;;;;;;;4898064;29;21113;-75
2021/12/25 10:27:31;;;;;;;3.60;1.30;;;;;;;;;;4913189;29;20494;-73
2021/12/25 10:30:03;;;;;;;4.00;1.35;;;;;;;;;;4872120;29;21066;-74
2021/12/25 10:32:29;;;;;;;3.72;1.30;;;;;;;;;;4874193;29;20857;-75
2021/12/25 10:34:55;;;;;;;2.25;1.10;;;;;;;;;;4904492;29;20432;-76
2021/12/25 10:37:22;;;;;;;5.00;1.77;;;;;;;;;;4913897;29;20479;-75
2021/12/25 10:39:49;;;;;;;6.60;3.27;;;;;;;;;;4916651;29;20440;-73
2021/12/25 10:42:20;;;;;;;3.88;2.00;;;;;;;;;;4909421;29;20437;-75
2021/12/25 10:44:51;;;;;;;3.47;1.47;;;;;;;;;;4893896;29;20664;-73
2021/12/25 10:47:21;;;;;;;4.60;1.67;;;;;;;;;;4889008;29;20482;-73
2021/12/25 10:49:53;;;;;;;2.67;1.20;;;;;;;;;;4896992;29;21066;-73
2021/12/25 10:52:32;;;;;;;4.38;1.50;;;;;;;;;;4890445;29;20600;-73
2021/12/25 10:55:17;;;;;;;5.20;1.53;;;;;;;;;;4904674;29;20508;-73
2021/12/25 10:57:46;;;;;;;5.13;1.90;;;;;;;;;;4886531;29;20560;-72
2021/12/25 11:00:26;;;;;;;4.93;1.63;;;;;;;;;;4908363;29;20636;-73
2021/12/25 11:02:55;;;;;;;5.18;1.60;;;;;;;;;;4888653;29;20943;-72
2021/12/25 11:05:27;;;;;;;3.45;1.83;;;;;;;;;;4902368;29;20888;-72
2021/12/25 11:08:12;;;;;;;4.23;1.60;;;;;;;;;;4882457;29;20520;-75
2021/12/25 11:10:44;;;;;;;4.50;2.22;;;;;;;;;;4886570;29;20490;-74
2021/12/25 11:13:18;;;;;;;5.43;1.88;;;;;;;;;;4910016;29;20442;-74
2021/12/25 11:15:44;;;;;;;5.63;1.65;;;;;;;;;;4894108;29;20436;-75
2021/12/25 11:18:12;;;;;;;4.30;1.55;;;;;;;;;;4891127;29;20463;-73
2021/12/25 11:20:39;;;;;;;4.35;1.77;;;;;;;;;;4913219;29;20430;-75
2021/12/25 11:23:07;;;;;;;5.43;2.75;;;;;;;;;;4904430;29;20523;-72
2021/12/25 11:25:34;;;;;;;6.05;3.25;;;;;;;;;;4913432;29;20522;-75
2021/12/25 11:28:01;;;;;;;6.30;3.25;;;;;;;;;;4909653;29;20450;-74
2021/12/25 11:30:29;;;;;;;4.40;2.28;;;;;;;;;;4879836;29;21010;-74
2021/12/25 11:32:55;;;;;;;7.25;3.58;;;;;;;;;;4901259;29;20429;-74
2021/12/25 11:35:25;;;;;;;6.00;3.03;;;;;;;;;;4908193;29;20445;-73
2021/12/25 11:37:52;;;;;;;5.07;1.70;;;;;;;;;;4906160;29;20433;-74
2021/12/25 11:40:19;;;;;;;4.00;1.60;;;;;;;;;;4893825;29;20442;-74
2021/12/25 11:42:47;;;;;;;4.72;1.63;;;;;;;;;;4902385;29;20427;-73
2021/12/25 11:45:17;;;;;;;4.00;1.40;;;;;;;;;;4906541;29;20438;-74
2021/12/25 11:47:45;;;;;;;4.73;1.53;;;;;;;;;;4894911;29;20940;-74
2021/12/25 11:50:11;;;;;;;3.97;1.70;;;;;;;;;;4911869;29;20525;-75
2021/12/25 11:52:55;;;;;;;4.93;1.63;;;;;;;;;;4887266;29;20537;-75
2021/12/25 11:58:36;;;;;;;11.95;6.53;;;;;;;;;;4888360;29;20442;-72
2021/12/25 12:01:15;;;;;;;11.20;7.13;;;;;;;;;;4883293;29;20425;-77
2021/12/25 12:03:44;;;;;;;5.40;2.35;;;;;;;;;;4901996;29;20432;-74
2021/12/25 12:06:10;;;;;;;4.53;1.40;;;;;;;;;;4906130;29;20535;-74
2021/12/25 12:08:55;;;;;;;4.47;1.85;;;;;;;;;;4875337;29;20434;-73
2021/12/25 12:11:25;;;;;;;4.00;1.70;;;;;;;;;;4886246;29;20515;-73
2021/12/25 12:14:10;;;;;;;5.13;1.20;;;;;;;;;;4896463;29;20980;-74
2021/12/25 12:16:38;;;;;;;3.55;1.35;;;;;;;;;;4917315;29;20466;-74
2021/12/25 12:19:04;;;;;;;2.95;1.20;;;;;;;;;;4891634;29;20459;-74
2021/12/25 12:21:39;;;;;;;3.78;0.95;;;;;;;;;;4901304;29;20441;-74
2021/12/25 12:27:00;;;;;;;2.70;1.20;;;;;;;;;;4912030;29;20431;-74
2021/12/25 12:29:53;;;;;;;3.25;1.13;;;;;;;;;;4907415;29;20443;-74
2021/12/25 12:32:19;;;;;;;4.05;1.67;;;;;;;;;;4904724;29;20865;-75
2021/12/25 12:34:47;;;;;;;3.10;1.70;;;;;;;;;;4909404;29;20434;-74
2021/12/25 12:37:16;;;;;;;5.50;1.80;;;;;;;;;;4899599;29;20893;-74
2021/12/25 12:40:05;;;;;;;4.53;1.70;;;;;;;;;;4879091;29;20436;-73
2021/12/25 12:42:48;;;;;;;3.65;1.70;;;;;;;;;;4900083;29;20446;-74
2021/12/25 12:45:29;;;;;;;3.83;2.08;;;;;;;;;;4897661;29;20800;-74
2021/12/25 12:48:08;;;;;;;3.63;1.40;;;;;;;;;;4897645;29;20443;-74
2021/12/25 12:50:34;;;;;;;5.28;2.17;;;;;;;;;;4883838;29;20451;-75
2021/12/25 12:53:02;;;;;;;8.68;4.40;;;;;;;;;;4895443;29;20808;-74
2021/12/25 12:55:29;;;;;;;15.55;7.15;;;;;;;;;;4897267;29;20434;-73
2021/12/25 12:58:10;;;;;;;16.77;8.70;;;;;;;;;;4897796;29;20439;-74
2021/12/25 13:00:36;;;;;;;3.58;1.70;;;;;;;;;;4896800;29;20474;-74
2021/12/25 13:03:02;;;;;;;4.15;1.60;;;;;;;;;;4898960;29;20816;-74
2021/12/25 13:05:34;;;;;;;3.63;1.48;;;;;;;;;;4885612;29;20793;-73
2021/12/25 13:08:02;;;;;;;3.60;1.48;;;;;;;;;;4874062;29;20939;-73
2021/12/25 13:10:38;;;;;;;3.40;1.20;;;;;;;;;;4890557;29;20934;-73
2021/12/25 13:13:08;;;;;;;2.13;0.90;;;;;;;;;;4880149;29;20440;-73
2021/12/25 13:15:35;;;;;;;4.90;1.55;;;;;;;;;;4898630;29;20440;-73
2021/12/25 13:18:04;;;;;;;2.70;1.30;;;;;;;;;;4895350;29;20443;-73
2021/12/25 13:20:33;;;;;;;4.97;1.30;;;;;;;;;;4896109;29;20442;-73
2021/12/25 13:23:00;;;;;;;5.55;1.40;;;;;;;;;;4893782;29;20437;-73
2021/12/25 13:25:26;;;;;;;3.47;1.50;;;;;;;;;;4901834;29;20435;-72
2021/12/25 13:27:57;;;;;;;4.57;1.48;;;;;;;;;;4899046;29;20735;-72
2021/12/25 13:30:23;;;;;;;9.57;4.28;;;;;;;;;;4891989;29;21291;-73
2021/12/25 13:32:49;;;;;;;8.00;4.10;;;;;;;;;;4886238;29;21180;-73
2021/12/25 13:35:17;;;;;;;9.25;4.13;;;;;;;;;;4905024;29;20435;-73
2021/12/25 13:37:43;;;;;;;5.57;1.80;;;;;;;;;;4907787;29;20442;-73
2021/12/25 13:40:10;;;;;;;7.55;2.65;;;;;;;;;;4916250;29;20463;-73
2021/12/25 13:42:36;;;;;;;5.47;2.33;;;;;;;;;;4876085;29;20452;-74
2021/12/25 13:45:03;;;;;;;6.30;2.45;;;;;;;;;;4891903;29;20437;-74
2021/12/25 13:47:29;;;;;;;4.65;1.67;;;;;;;;;;4916563;29;20438;-74
2021/12/25 13:49:56;;;;;;;5.37;2.07;;;;;;;;;;4900413;29;20522;-73
2021/12/25 13:52:33;;;;;;;4.22;1.45;;;;;;;;;;4881270;29;20432;-73
2021/12/25 13:55:02;;;;;;;5.68;1.63;;;;;;;;;;4899211;29;20572;-72
2021/12/25 13:57:29;;;;;;;4.22;1.60;;;;;;;;;;4886341;29;20428;-72
2021/12/25 14:00:01;;;;;;;4.15;1.55;;;;;;;;;;4899849;29;20441;-72
2021/12/25 14:02:29;;;;;;;3.92;1.30;;;;;;;;;;4883317;29;20436;-72
2021/12/25 14:04:56;;;;;;;3.83;1.35;;;;;;;;;;4884567;29;20502;-73
2021/12/25 14:07:26;;;;;;;5.70;1.60;;;;;;;;;;4903670;29;20444;-73
2021/12/25 14:09:57;;;;;;;4.55;1.60;;;;;;;;;;4910606;29;20438;-73
2021/12/25 14:12:24;;;;;;;3.58;1.50;;;;;;;;;;4899935;29;20817;-74
2021/12/25 14:14:50;;;;;;;5.60;1.60;;;;;;;;;;4905005;29;20949;-73
2021/12/25 14:17:17;;;;;;;4.53;1.92;;;;;;;;;;4893822;29;20526;-73
2021/12/25 14:19:43;;;;;;;5.85;2.60;;;;;;;;;;4885725;29;20787;-73
2021/12/25 14:22:09;;;;;;;4.68;1.83;;;;;;;;;;4892853;29;20442;-74
2021/12/25 14:24:41;;;;;;;6.30;1.95;;;;;;;;;;4902054;29;20431;-73
2021/12/25 14:27:13;;;;;;;3.95;2.30;;;;;;;;;;4895918;29;20530;-73
2021/12/25 14:29:39;;;;;;;4.53;2.70;;;;;;;;;;4887224;29;20489;-74
2021/12/25 14:32:05;;;;;;;8.88;2.50;;;;;;;;;;4886473;29;20438;-74
2021/12/25 14:34:33;;;;;;;9.90;3.90;;;;;;;;;;4898920;29;20516;-73
2021/12/25 14:36:59;;;;;;;5.47;2.00;;;;;;;;;;4900666;29;20437;-74
2021/12/25 14:39:27;;;;;;;4.85;1.92;;;;;;;;;;4914607;29;22453;-73
2021/12/25 14:41:53;;;;;;;5.72;2.10;;;;;;;;;;4890453;29;20546;-73
2021/12/25 14:44:19;;;;;;;5.55;2.00;;;;;;;;;;4897247;29;20739;-74
2021/12/25 14:46:46;;;;;;;4.15;1.65;;;;;;;;;;4897361;29;20444;-73
2021/12/25 14:49:12;;;;;;;4.18;1.58;;;;;;;;;;4894263;29;20556;-73
2021/12/25 14:51:38;;;;;;;5.30;1.77;;;;;;;;;;4913544;29;20446;-73
2021/12/25 14:54:05;;;;;;;5.82;2.17;;;;;;;;;;4895796;29;20431;-72
2021/12/25 14:56:33;;;;;;;6.13;2.13;;;;;;;;;;4887858;29;20569;-73
2021/12/25 14:59:08;;;;;;;4.25;1.88;;;;;;;;;;4912998;29;20516;-73
2021/12/25 15:01:39;;;;;;;4.97;1.83;;;;;;;;;;4893875;29;20441;-73
2021/12/25 15:04:05;;;;;;;3.88;1.92;;;;;;;;;;4890462;29;20438;-73
2021/12/25 15:06:31;;;;;;;8.25;1.70;;;;;;;;;;4896721;29;20441;-72
2021/12/25 15:09:04;;;;;;;4.40;1.83;;;;;;;;;;4887778;29;20455;-73
2021/12/25 15:11:35;;;;;;;4.15;2.00;;;;;;;;;;4882640;29;20445;-72
2021/12/25 15:14:02;;;;;;;4.57;1.95;;;;;;;;;;4894871;29;21083;-72
2021/12/25 15:16:48;;;;;;;4.50;1.80;;;;;;;;;;4904142;29;20453;-73
2021/12/25 15:19:40;;;;;;;6.20;2.10;;;;;;;;;;4908469;29;20561;-73
2021/12/25 15:22:09;;;;;;;4.10;1.70;;;;;;;;;;4907764;29;20427;-73
2021/12/25 15:24:36;;;;;;;4.97;1.80;;;;;;;;;;4903229;29;20476;-73
2021/12/25 15:27:04;;;;;;;6.25;1.83;;;;;;;;;;4903582;29;20505;-71
2021/12/25 15:29:35;;;;;;;5.55;1.90;;;;;;;;;;4905581;29;20520;-72
2021/12/25 15:32:03;;;;;;;4.88;1.90;;;;;;;;;;4897909;29;20439;-73
2021/12/25 15:34:30;;;;;;;4.30;1.75;;;;;;;;;;4904378;29;20441;-73
2021/12/25 15:36:56;;;;;;;3.65;1.80;;;;;;;;;;4914230;29;20427;-74
2021/12/25 15:39:24;;;;;;;5.05;2.78;;;;;;;;;;4881956;29;20496;-74
2021/12/25 15:41:51;;;;;;;5.10;2.50;;;;;;;;;;4906810;29;20432;-74
2021/12/25 15:44:18;;;;;;;6.05;2.70;;;;;;;;;;4908370;29;20562;-74
2021/12/25 15:46:45;;;;;;;6.07;2.50;;;;;;;;;;4901012;29;20569;-73
2021/12/25 15:49:11;;;;;;;6.88;2.70;;;;;;;;;;4905843;29;20450;-73
2021/12/25 15:51:37;;;;;;;5.40;2.75;;;;;;;;;;4895086;29;20447;-73
2021/12/25 15:54:04;;;;;;;4.80;2.40;;;;;;;;;;4898612;29;20442;-72
2021/12/25 15:56:30;;;;;;;6.47;3.45;;;;;;;;;;4894080;29;20494;-73
2021/12/25 15:58:56;;;;;;;7.22;3.85;;;;;;;;;;4901997;29;20533;-74
2021/12/25 16:01:23;;;;;;;6.57;3.20;;;;;;;;;;4892770;29;20531;-73
2021/12/25 16:03:49;;;;;;;6.13;2.42;;;;;;;;;;4895966;29;20502;-74
2021/12/25 16:06:15;;;;;;;6.10;2.80;;;;;;;;;;4908942;29;20531;-74
2021/12/25 16:08:41;;;;;;;5.70;2.80;;;;;;;;;;4884248;29;20445;-73
2021/12/25 16:11:08;;;;;;;7.10;2.70;;;;;;;;;;4886858;29;20462;-73
2021/12/25 16:13:35;;;;;;;4.88;2.03;;;;;;;;;;4887168;29;20442;-72
2021/12/25 16:16:02;;;;;;;5.15;2.20;;;;;;;;;;4916995;29;20442;-72
2021/12/25 16:18:33;;;;;;;4.45;2.00;;;;;;;;;;4892872;29;20953;-73
2021/12/25 16:21:00;;;;;;;7.20;2.78;;;;;;;;;;4902487;29;20487;-74
2021/12/25 16:23:26;;;;;;;5.68;2.05;;;;;;;;;;4901143;29;20435;-73